Sterling, IL (61081)

9:04 AM CDT on April 21, 2015 (GMT -0500)
Snavely Subdivision (2.0mi NE Sterling) | | Change Station
CLOSE
Current Station
Personal Weather Station
Location: Sterling, IL
Elevation: 715 ft
Nearby Weather Stations
Active Advisory: Wind Advisory

Elev 715 ft 41.82 °N, 89.67 °W | Updated 9 seconds ago

Clear
Clear
44.5 °F
Feels Like 38 °F
N
13.0
Wind Variable Wind from West
Gusts 18.0 mph

Today
High -- | Low -- °F
--% Chance of Precip.
Yesterday
High -- | Low -- °F
Precip. -- in
6:09 AM 7:46 PM
Waxing Crescent, 10% visible
Pressure 29.67 in
Visibility 10.0 miles
Clouds Clear
Windchill 38 °F
Dew Point 34 °F
Humidity 65%
Rainfall 0.00 in
Snow Depth Not available.
UV 3 out of 12
Pollen 10.80 out of 12
Air Quality Not available.
Flu Activity Regional
METAR KSQI 211355Z AUTO 27020G27KT 10SM CLR 08/M01 A2967 RMK AO1

More Conditions Fewer Conditions

Pressure 29.67 in
Visibility 10.0 miles
Clouds Clear
Windchill 38 °F
Dew Point 34 °F
Humidity 65%
Rainfall 0.00 in
Snow Depth Not available.
UV 3 out of 12
Pollen 10.80 out of 12
Air Quality Not available.
Flu Activity Regional
METAR KSQI 211355Z AUTO 27020G27KT 10SM CLR 08/M01 A2967 RMK AO1

More Conditions Fewer Conditions

10-Day Weather Forecast

Almanac

Astronomy

Apr. 21, 2015 Rise Set
Actual Time
Civil Twilight
Nautical Twilight
Astronomical Twilight
Moon
Length of Visible Light
Length of Day
Tomorrow will be .
, % of the Moon is Illuminated

Today's Extremes

State Highs State Lows

Community

WunderPhotos

Upload Photos

1,815,393 photos uploaded!

WunderBlogs® & News

Nearby

Air Quality

  Air Quality AQ Index Pollutant
Not available.

Snow Depth

Station Depth Elevation

Earthquake Activity

City Distance Mag. Time & Date
Minimum magnitude displayed is 2.5.

Coastal Water Temperatures

Place Temperature

Stations

Nearby Weather Stations

Station Location Temp. Windchill Dew Point Humidity Wind Precip. Elev Updated Type
                   
Wind Advisory
Statement as of 4:12 AM CDT on April 21, 2015

... Wind Advisory in effect from 11 am this morning to 7 PM CDT
this evening...

The National Weather Service in Quad Cities has issued a Wind
Advisory... which is in effect from 11 am this morning to 7 PM CDT
this evening.

* Winds... northwest 25 to 30 mph with gusts up to 45 mph.

* Timing... late morning and afternoon.

* Impacts... strong winds can make driving difficult at
times... especially for high profile vehicles on north... south
roadways. Unsecured outdoor items may also be blown around.

Precautionary/preparedness actions...

A Wind Advisory means that winds of 30 mph or greater are
expected... which can make driving difficult... especially for high
profile vehicles. Use extra caution if you are traveling.